x

Luke Offshore Test Platform - 64 Nm South Of Dauphin Island, Al (42040) Weather Station

9:00am - Mon 22nd May 2017 All times are CDT. -5 hours from GMT.

  • Wind
    2mph, 2mph gusts
  • Sea Temp 78°f
  • Air Temp 78°f
  • Sea Pressure 1017.5mb
  • Luke Offshore Test Platform - 64 Nm South Of Dauphin Island, Al
  • Luke Offshore Test Platform - 64 Nm South Of Dauphin Island, Al

More Historic Weather Station data

Upgrade to MSW Pro to gain access to the past 30 days of data for over 8000 Wavebouys and Weather Stations around the globe.

Join Pro

Comparision Forecast

View Surf forecast
   
Mon 05/22 9:00am  -   -   -  2 2 mph 1017.5mb 78f 78f
8:40am  -   -   -  2 4 mph 1017.8mb 78f 78f
8:30am  -   -   -  4 7 mph 1017.8mb 78f 78f
8:20am  -   -   -  7 7 mph 1017.9mb 78f 77f
8:10am  -   -   -  7 9 mph 1017.9mb 78f 77f
8:00am  -   -   -  7 9 mph 1018mb 78f 77f
7:50am 2.5ft 8s 5s 7 9 mph 1017.9mb 78f 77f
7:40am 2.5ft  -  5s 7 9 mph 1017.8mb 78f 77f
7:30am  -   -   -  9 11 mph 1017.8mb 78f 77f
7:20am  -   -   -  9 11 mph 1017.4mb 78f 77f
7:10am  -   -   -  9 11 mph 1017.5mb 78f 77f
7:00am  -   -   -  9 11 mph 1017.5mb 78f 77f
6:50am 3ft 9s 5s 9 9 mph 1017.5mb 78f 77f
6:40am  -   -   -  7 9 mph 1017.4mb 78f 77f
6:30am  -   -   -  7 9 mph 1017.5mb 78f 77f
6:20am  -   -   -  7 9 mph 1017.5mb 78f 77f
6:10am  -   -   -  7 9 mph 1017.5mb 78f 77f
6:00am  -   -   -  7 7 mph 1017.4mb 78f 77f
5:50am 3ft 8s 5s 4 7 mph 1017.4mb 78f 77f
5:40am  -   -   -  7 9 mph 1017.4mb 78f 77f
5:30am  -   -   -  7 9 mph 1017.4mb 78f 77f
5:20am  -   -   -  4 7 mph 1017.5mb 78f 77f
5:10am  -   -   -  4 7 mph 1017.3mb 78f 77f
5:00am  -   -   -  4 7 mph 1017mb 78f 77f
4:50am 3ft 8s 5s 7 9 mph 1017.1mb 78f 77f
4:40am 3ft  -  5s 9 11 mph 1016.6mb 78f 77f
4:30am  -   -   -  9 11 mph 1016.5mb 78f 77f
4:20am  -   -   -  4 7 mph 1016.8mb 78f 77f
4:10am  -   -   -  7 9 mph 1017mb 78f 77f
4:00am  -   -   -  9 11 mph 1016.5mb 78f 77f
3:50am 3ft 9s 5s 13 18 mph 1016mb 78f 77f
3:40am  -   -   -  16 20 mph 1015.5mb 78f 77f
3:30am  -   -   -  16 20 mph 1015.1mb 78f 77f
3:20am  -   -   -  13 18 mph 1015.4mb 78f 77f
3:10am  -   -   -  11 13 mph 1016.4mb 78f 78f
3:00am  -   -   -  11 16 mph 1016.5mb 78f 78f
2:50am 3ft 9s 5s 11 16 mph 1016.1mb 78f 78f
2:40am 3ft  -  5s 11 13 mph 1016.1mb 78f 78f
2:30am  -   -   -  11 13 mph 1016.3mb 78f 78f
2:20am  -   -   -  9 11 mph 1016.5mb 78f 78f
2:10am  -   -   -  9 11 mph 1016.8mb 78f 78f
2:00am  -   -   -  7 9 mph 1016.9mb 78f 78f
1:50am 3.5ft 8s 4s 4 7 mph 1017.1mb 78f 78f
1:40am 3.5ft  -  4s 4 7 mph 1017.4mb 78f 78f
1:30am  -   -   -  2 7 mph 1017.6mb 78f 77f
1:20am  -   -   -   -  2 mph 1017.9mb 78f 77f
1:10am  -   -   -  4 7 mph 1018mb 78f 77f
1:00am  -   -   -  4 7 mph 1018mb 78f 76f
12:50am 3.5ft 8s 4s 4 7 mph 1018.3mb 78f 76f
12:40am  -   -   -  7 9 mph 1018.5mb 78f 76f
12:30am  -   -   -  7 9 mph 1018.8mb 78f 76f
12:20am  -   -   -  7 11 mph 1018.9mb 78f 75f
12:10am  -   -   -  9 13 mph 1019mb 78f 75f
12:00am  -   -   -  11 16 mph 1019mb 78f 75f
Sun 05/21 11:50pm 3.5ft 4s 4s 16 20 mph 1019.1mb 78f 75f
11:40pm  -   -   -  18 25 mph 1019mb 78f 76f
11:30pm  -   -   -  22 29 mph 1019mb 78f 77f
11:20pm  -   -   -  22 27 mph 1019mb 78f 77f
11:10pm  -   -   -  22 27 mph 1019.1mb 78f 77f
11:00pm  -   -   -  20 25 mph 1019.1mb 78f 77f
10:50pm 3.5ft 8s 4s 20 25 mph 1019.4mb 78f 76f
10:40pm  -   -   -  20 25 mph 1019.3mb 78f 76f
10:30pm  -   -   -  22 25 mph 1019mb 78f 76f
10:20pm  -   -   -  22 31 mph 1018.9mb 78f 76f
10:10pm  -   -   -  22 27 mph 1018.8mb 78f 76f
10:00pm  -   -   -  20 27 mph 1019mb 78f 77f
9:50pm 2.5ft 6s 4s 20 27 mph 1018.8mb 78f 77f
9:40pm 2.5ft  -  4s 22 27 mph 1018.5mb 78f 77f
9:30pm  -   -   -  20 25 mph 1018.5mb 78f 76f
9:20pm  -   -   -  18 25 mph 1018.5mb 78f 76f
9:10pm  -   -   -  16 20 mph 1018.5mb 78f 76f
9:00pm  -   -   -  16 22 mph 1018.4mb 78f 76f
8:50pm 2.5ft 6s 5s 18 22 mph 1018.5mb 78f 76f
8:40pm  -   -   -  9 18 mph 1018.5mb 78f 76f
8:30pm  -   -   -  2 4 mph 1018mb 78f 75f
8:20pm  -   -   -  2 7 mph 1017.5mb 78f 75f
8:10pm  -   -   -  7 11 mph 1018.3mb 78f 75f
8:00pm  -   -   -  4 13 mph 1017.5mb 78f 75f
7:50pm 3ft 6s 5s 13 18 mph 1017.3mb 78f 75f
7:40pm 3ft  -  5s 16 20 mph 1015.9mb 78f 75f
7:30pm  -   -   -  16 18 mph 1015.9mb 78f 75f
7:20pm  -   -   -  13 16 mph 1016.5mb 78f 74f
7:10pm  -   -   -  11 16 mph 1017mb 78f 74f
7:00pm  -   -   -  9 11 mph 1017mb 78f 74f
6:50pm 3.5ft 6s 4s 11 16 mph 1017.3mb 78f 74f
6:40pm  -   -   -  11 16 mph 1017.4mb 78f 74f
6:30pm  -   -   -  13 18 mph 1017.4mb 78f 74f
6:20pm  -   -   -  13 20 mph 1017.5mb 78f 74f
6:10pm  -   -   -  13 18 mph 1017.3mb 78f 74f
6:00pm  -   -   -  13 18 mph 1017mb 78f 74f
5:50pm 3.5ft 6s 4s 18 22 mph 1016.6mb 78f 74f
5:40pm  -   -   -  20 27 mph 1016.8mb 78f 74f
5:30pm  -   -   -  20 27 mph 1016.8mb 78f 75f
5:20pm  -   -   -  16 22 mph 1016.8mb 78f 75f
5:10pm  -   -   -  18 22 mph 1016.5mb 78f 75f
5:00pm  -   -   -  18 22 mph 1016.5mb 78f 75f
4:50pm 3.5ft 6s 4s 20 25 mph 1016.5mb 78f 75f
4:40pm  -   -   -  22 27 mph 1016.8mb 78f 76f
4:30pm  -   -   -  20 22 mph 1016.5mb 78f 76f
4:20pm  -   -   -  18 25 mph 1016.5mb 78f 75f
4:10pm  -   -   -  18 22 mph 1016.6mb 78f 74f
4:00pm  -   -   -  20 29 mph 1017mb 78f 74f
3:50pm 4ft 6s 5s 20 29 mph 1016.9mb 78f 74f
3:40pm  -   -   -  18 22 mph 1016.9mb 78f 74f
3:30pm  -   -   -  22 29 mph 1017mb 78f 74f
3:20pm  -   -   -  22 29 mph 1016.8mb 78f 74f
3:10pm  -   -   -  18 25 mph 1018mb 78f 74f
3:00pm  -   -   -  16 18 mph 1018.3mb 78f 74f
2:50pm 3.5ft 6s 5s 13 16 mph 1018.1mb 78f 74f
2:40pm 3.5ft  -  5s 16 20 mph 1018.1mb 78f 73f
2:30pm  -   -   -  13 18 mph 1017.9mb 78f 73f
2:20pm  -   -   -  13 16 mph 1017.6mb 78f 73f
2:10pm  -   -   -  13 16 mph 1018.3mb 78f 72f
2:00pm  -   -   -  9 13 mph 1019.3mb 78f 72f
1:50pm 4ft 6s 5s 11 16 mph 1019.3mb 78f 71f
1:40pm 4ft  -  5s 13 18 mph 1020mb 78f 71f
1:30pm  -   -   -  13 16 mph 1019.4mb 78f 71f
1:20pm  -   -   -  9 13 mph 1019.3mb 78f 71f
1:10pm  -   -   -  11 18 mph 1020.5mb 78f 72f
1:00pm  -   -   -  16 20 mph 1020.1mb 78f 72f
12:50pm 4.5ft 5s 5s 18 22 mph 1020mb 78f 73f
12:40pm  -   -   -  18 22 mph 1019.5mb 78f 73f
12:30pm  -   -   -  18 22 mph 1019.5mb - 74f
12:20pm  -   -   -  18 22 mph 1019.5mb 78f 74f
12:10pm  -   -   -  16 20 mph 1020mb 78f 74f
12:00pm  -   -   -  13 16 mph 1020mb 78f 74f
11:50am 4.5ft 6s 5s 11 16 mph 1020mb 78f 73f
11:40am  -   -   -  13 16 mph 1020.1mb 78f 73f
11:30am  -   -   -  16 18 mph 1020mb 78f 74f
11:20am  -   -   -  16 18 mph 1020mb 78f 74f
11:10am  -   -   -  18 20 mph 1019.6mb 78f 74f
11:00am  -   -   -  18 22 mph 1019.5mb 78f 74f
10:50am 5ft 6s 5s 20 25 mph 1019.4mb 78f 74f
10:40am  -   -   -  20 27 mph 1019mb 78f 74f
10:30am  -   -   -  20 25 mph 1019.3mb 78f -
10:20am  -   -   -  20 25 mph 1019.3mb 78f 74f
10:10am  -   -   -  18 22 mph 1019.3mb 78f 74f
10:00am  -   -   -  16 20 mph 1019.3mb 78f 74f
9:50am 5ft 6s 5s 18 20 mph 1019.3mb 78f 74f
9:40am  -   -   -  18 20 mph 1019.1mb 78f 74f
9:30am  -   -   -  18 20 mph 1019.3mb 78f 74f
9:20am  -   -   -  18 20 mph 1019mb 78f 74f
9:10am  -   -   -  18 20 mph 1018.8mb 78f 74f
9:00am  -   -   -  18 22 mph 1018.9mb 78f 74f
8:50am 5.5ft 6s 5s 18 22 mph 1018.8mb 78f 73f
8:40am  -   -   -  18 22 mph 1018.6mb 78f 73f
8:30am 5.5ft  -  5s 18 22 mph 1018.6mb - 74f
8:20am  -   -   -  20 25 mph 1018.9mb 78f 73f
8:10am  -   -   -  20 27 mph 1018.9mb - 73f
8:00am  -   -   -  20 25 mph 1019mb 78f 73f
7:50am 6ft 6s 5s 20 25 mph 1019mb 78f 73f
7:40am 6ft  -  5s 20 25 mph 1018.9mb 79f 73f
7:30am  -   -   -  20 25 mph 1018.9mb 78f 73f
7:20am  -   -   -  22 27 mph 1018.6mb 78f 73f
7:10am  -   -   -  25 29 mph 1018.6mb 78f 72f
7:00am  -   -   -  25 31 mph 1018mb 78f 73f
6:50am 6ft 6s 5s 25 31 mph 1018mb 79f 73f
6:40am 6ft  -  5s 25 31 mph 1017.9mb 78f 73f
6:30am  -   -   -  22 31 mph 1018mb 78f 73f
6:20am  -   -   -  22 29 mph 1018.1mb 78f 72f
6:10am  -   -   -  22 29 mph 1018.1mb 79f 72f
6:00am  -   -   -  20 27 mph 1017.9mb 79f 72f
5:50am 5.5ft 6s 5s 22 27 mph 1017.8mb 79f 72f
5:40am  -   -   -  22 29 mph 1017.8mb 79f 72f
5:30am  -   -   -  22 29 mph 1017.6mb 79f 73f
5:20am  -   -   -  25 31 mph 1017.3mb 79f 73f
5:10am  -   -   -  25 29 mph 1017mb 79f 73f
5:00am  -   -   -  25 38 mph 1016.8mb 79f 74f
4:50am 5ft 5s 5s 25 34 mph 1016.5mb 79f 74f
4:40am 5ft  -  5s 25 29 mph 1016.8mb 79f 74f
4:30am  -   -   -  25 31 mph 1016.5mb 79f 74f
4:20am  -   -   -  25 31 mph 1016.5mb 79f 74f
4:10am  -   -   -  22 29 mph 1016.5mb 79f 74f
4:00am  -   -   -  20 27 mph 1016.8mb 79f 74f
3:50am 3.5ft 6s 5s 16 22 mph 1016.5mb 79f 74f
3:40am 3.5ft  -  5s 16 20 mph 1016.5mb 79f 74f
3:30am  -   -   -  18 22 mph 1016.5mb 79f -
3:20am  -   -   -  18 25 mph 1016.3mb 79f 75f
3:10am  -   -   -  16 20 mph 1016mb 79f 76f
3:00am  -   -   -  9 11 mph 1016.4mb 79f 79f
2:50am 3.5ft 6s 5s 7 9 mph 1016.5mb 79f 79f
2:40am  -   -   -  9 11 mph 1016.5mb 79f 79f
2:30am  -   -   -  11 16 mph 1016.1mb 79f 79f
2:20am  -   -   -  13 16 mph 1016mb 79f 79f
2:10am  -   -   -  9 13 mph 1016mb 79f 79f
2:00am  -   -   -  9 11 mph 1016.3mb 79f 79f
1:50am 3.5ft 6s 5s 7 9 mph 1016.5mb 79f 79f
1:40am 3.5ft  -  5s 7 9 mph 1016.5mb 79f 79f
1:30am  -   -   -  9 11 mph 1016.5mb 79f 79f
1:20am  -   -   -  11 16 mph 1016.1mb 79f 79f
1:10am  -   -   -  11 13 mph 1016.3mb 79f 79f
1:00am  -   -   -  11 13 mph 1016.4mb 79f 79f
12:50am 4ft 7s 5s 11 13 mph 1016mb 79f 79f
12:40am  -   -   -  13 18 mph 1016mb 79f 79f
12:30am  -   -   -  11 18 mph 1016mb 79f 79f
12:20am  -   -   -  11 13 mph 1016.1mb 79f 79f
12:10am  -   -   -  11 16 mph 1016.3mb 79f 79f
12:00am  -   -   -  11 13 mph 1016.1mb 79f 79f
Sat 05/20 11:50pm 4.5ft 6s 5s 11 13 mph 1016.1mb 79f 79f
11:40pm  -   -   -  11 13 mph 1016mb 79f 79f
11:30pm  -   -   -  9 11 mph 1016.3mb 79f 79f
11:20pm  -   -   -  9 11 mph 1016.1mb 79f 79f
11:10pm  -   -   -  9 11 mph 1016.1mb 79f 79f
11:00pm  -   -   -  9 11 mph 1016.1mb 79f 79f
10:50pm 4ft 6s 5s 11 13 mph 1016.5mb 79f 79f
10:40pm 4ft  -  5s 11 16 mph 1016.4mb 79f 79f
10:30pm  -   -   -  11 13 mph 1016.3mb 79f 79f
10:20pm  -   -   -  9 11 mph 1016.3mb 79f 79f
10:10pm  -   -   -  11 13 mph 1016.4mb 79f 79f
10:00pm  -   -   -  11 16 mph 1016.5mb 79f 80f
9:50pm 4.5ft 6s 5s 16 20 mph 1016.3mb 79f 79f
9:40pm 4.5ft  -  5s 16 20 mph 1016mb 79f 79f
9:30pm  -   -   -  13 16 mph 1015.8mb 79f 79f
9:20pm  -   -   -  11 16 mph 1015.5mb 79f 79f
9:10pm  -   -   -  13 16 mph 1015mb 79f 79f
9:00pm  -   -   -  13 16 mph 1014.8mb 79f 79f
8:50pm 3.5ft 7s 5s 13 18 mph 1014.8mb 79f 79f
8:10pm  -   -   -  13 16 mph 1014.8mb 79f 79f
8:00pm  -   -   -  13 16 mph 1014.5mb 79f 79f
7:50pm 4ft 7s 5s 13 18 mph 1014.5mb 79f 79f
7:40pm  -   -   -  16 18 mph 1014.4mb 79f 79f
7:30pm  -   -   -  16 18 mph 1014.5mb 79f 79f
7:20pm  -   -   -  16 20 mph 1014.3mb 79f 78f
7:10pm  -   -   -  16 20 mph 1014.1mb 79f 79f
7:00pm  -   -   -  16 20 mph 1014mb 79f 79f
6:50pm 4ft 6s 5s 16 18 mph 1013.6mb 79f 79f
6:40pm  -   -   -  16 20 mph 1013.8mb 79f 79f
6:30pm  -   -   -  16 18 mph 1013.5mb 79f 79f
6:20pm  -   -   -  16 18 mph 1013.4mb 79f 79f
6:10pm  -   -   -  16 18 mph 1013.4mb 79f 79f
6:00pm  -   -   -  13 18 mph 1013.5mb 79f 79f
5:50pm 3.5ft 6s 5s 13 18 mph 1013.6mb 79f 79f
5:40pm  -   -   -  13 16 mph 1013.8mb 79f 79f
5:30pm  -   -   -  13 16 mph 1013.9mb 79f 79f
5:20pm  -   -   -  13 18 mph 1014mb 79f 79f
5:10pm  -   -   -  13 16 mph 1014.3mb 79f 79f
5:00pm  -   -   -  11 16 mph 1014.1mb 79f 79f
4:50pm 3.5ft 6s 5s 11 16 mph 1014.3mb 79f 79f
4:40pm 3.5ft  -  5s 11 16 mph 1014mb 79f 79f
4:30pm  -   -   -  13 16 mph 1014.3mb 79f 79f
4:20pm  -   -   -  13 18 mph 1014.3mb 79f 79f
4:10pm  -   -   -  13 18 mph 1014.3mb 79f 79f
4:00pm  -   -   -  16 18 mph 1014.3mb 79f 79f
3:50pm 4ft 5s 5s 16 20 mph 1014.1mb 79f 79f
3:40pm  -   -   -  16 18 mph 1014.3mb 79f 79f
3:30pm  -   -   -  16 18 mph 1014.1mb 79f 79f
3:20pm  -   -   -  16 20 mph 1014.3mb 79f 79f
3:10pm  -   -   -  16 18 mph 1014.3mb 79f 79f
3:00pm  -   -   -  16 18 mph 1014.1mb 79f 79f
2:50pm 4ft 5s 5s 13 18 mph 1014.3mb 79f 79f
2:40pm 4ft  -  5s 13 18 mph 1014.3mb 79f 79f
2:30pm  -   -   -  13 18 mph 1014.5mb 79f 79f
2:20pm  -   -   -  13 18 mph 1014.5mb 79f 79f
2:10pm  -   -   -  13 18 mph 1014.5mb 79f 79f
2:00pm  -   -   -  13 16 mph 1014.5mb 79f 79f
1:50pm 3.5ft 6s 5s 13 18 mph 1014.8mb 79f 79f
1:40pm  -   -   -  16 18 mph 1014.8mb 79f 79f
1:30pm  -   -   -  16 18 mph 1015mb 79f 79f
1:20pm  -   -   -  13 18 mph 1015.1mb 79f 79f
1:10pm  -   -   -  16 18 mph 1015.3mb 79f 79f
1:00pm  -   -   -  16 18 mph 1015.5mb 79f 79f
12:50pm 4ft 5s 5s 16 20 mph 1015.6mb 79f 79f
12:40pm  -   -   -  16 18 mph 1015.6mb 79f 79f
12:30pm  -   -   -  16 20 mph 1015.9mb 79f 79f
12:20pm  -   -   -  16 20 mph 1016mb 79f 79f
12:10pm  -   -   -  16 20 mph 1016mb 79f 79f
12:00pm  -   -   -  16 20 mph 1016mb 79f 79f
11:50am 4ft 6s 5s 16 20 mph 1016mb 79f 79f
11:40am 4ft  -  5s 16 18 mph 1016mb 79f 79f
11:30am  -   -   -  16 18 mph 1016mb 79f 79f
11:20am  -   -   -  16 20 mph 1015.9mb 79f 79f
11:10am  -   -   -  13 18 mph 1015.9mb 79f 79f
11:00am  -   -   -  16 18 mph 1015.8mb 79f 79f
10:50am 4ft 6s 5s 16 18 mph 1015.6mb 79f 79f
10:40am 4ft  -  5s 13 18 mph 1015.6mb 79f 79f
10:30am  -   -   -  13 18 mph 1015.6mb 79f 79f
10:20am  -   -   -  13 20 mph 1015.8mb 79f 79f
10:10am  -   -   -  16 18 mph 1015.8mb 79f 79f
10:00am  -   -   -  16 20 mph 1015.6mb 79f 79f
9:50am 4ft 6s 5s 16 20 mph 1015.5mb 78f 79f
9:40am 4ft  -  5s 16 20 mph 1015.5mb 78f 79f
9:30am  -   -   -  16 20 mph 1015.5mb 78f 79f
9:20am  -   -   -  16 20 mph 1015.4mb 78f 79f
9:10am  -   -   -  16 20 mph 1015.1mb 78f 79f
9:00am  -   -   -  18 20 mph 1015mb 78f 79f
8:50am 4.5ft 7s 5s 16 20 mph 1015mb 78f 79f
8:40am  -   -   -  16 20 mph 1014.8mb 78f 79f
8:30am  -   -   -  16 18 mph 1014.8mb 78f 78f
8:20am  -   -   -  16 18 mph 1014.6mb 78f 78f
8:10am  -   -   -  16 20 mph 1014.6mb 78f 78f
8:00am  -   -   -  16 20 mph 1014.6mb - 78f
7:50am 4ft 7s 5s 18 22 mph 1014.5mb 78f 78f
7:40am  -   -   -  16 20 mph 1014.5mb 78f 78f
7:30am  -   -   -  16 20 mph 1014.5mb 78f 78f
7:20am  -   -   -  16 20 mph 1014.5mb 78f 78f
7:10am  -   -   -  16 18 mph 1014.5mb 78f 78f
7:00am  -   -   -  16 20 mph 1014.5mb 78f 78f
6:50am 4.5ft 6s 5s 16 18 mph 1014.5mb 78f 78f
6:40am 4.5ft  -  5s 16 18 mph 1014.4mb 78f 78f
6:30am  -   -   -  16 18 mph 1014.3mb 78f 78f
6:20am  -   -   -  16 20 mph 1014.3mb 78f 78f
6:10am  -   -   -  16 20 mph 1014.1mb 78f 78f
6:00am  -   -   -  16 20 mph 1014mb 78f 78f
5:50am 4ft 5s 5s 18 22 mph 1013.9mb 78f 78f
5:40am 4ft  -  5s 18 22 mph 1013.8mb 78f 78f
5:30am  -   -   -  18 22 mph 1013.8mb 78f 78f
5:20am  -   -   -  18 20 mph 1013.6mb 78f 78f
5:10am  -   -   -  18 22 mph 1013.5mb 78f 78f
5:00am  -   -   -  18 22 mph 1013.5mb - 78f
4:50am 4ft 6s 5s 18 22 mph 1013.5mb 78f 78f
4:40am 4ft  -  5s 18 22 mph 1013.6mb 78f 78f
4:30am  -   -   -  18 22 mph 1013.6mb 78f 78f
4:20am  -   -   -  18 22 mph 1013.8mb 78f 78f
4:10am  -   -   -  18 22 mph 1013.6mb 78f 78f
4:00am  -   -   -  18 22 mph 1013.8mb 78f 78f
3:50am 4.5ft 6s 5s 18 22 mph 1013.5mb 78f 78f
3:40am  -   -   -  18 20 mph 1013.5mb 78f 78f
3:30am  -   -   -  16 20 mph 1013.6mb 78f 78f
3:20am  -   -   -  16 20 mph 1013.6mb 78f 78f
3:10am  -   -   -  16 18 mph 1013.9mb 78f 78f
3:00am  -   -   -  13 18 mph 1013.8mb 78f 78f
2:50am 4.5ft 7s 5s 13 16 mph 1013.8mb 78f 78f
2:40am  -   -   -  13 18 mph 1013.8mb 78f 78f
2:30am  -   -   -  13 18 mph 1013.9mb 78f 78f
2:20am  -   -   -  16 18 mph 1013.9mb 78f 78f
2:10am  -   -   -  13 18 mph 1013.9mb 78f 78f
2:00am  -   -   -  13 18 mph 1014mb 78f 78f
1:50am 4.5ft 6s 5s 13 16 mph 1014.1mb 78f 78f
1:40am  -   -   -  13 18 mph 1014.1mb 78f 78f
1:30am  -   -   -  13 18 mph 1014.3mb 78f 78f
1:20am  -   -   -  13 18 mph 1014.3mb 78f 78f
1:10am  -   -   -  13 18 mph 1014.4mb 78f 78f
1:00am  -   -   -  13 18 mph 1014.5mb - 78f
12:50am 4.5ft 7s 5s 13 18 mph 1014.5mb 78f 78f
12:40am  -   -   -  13 16 mph 1014.5mb 78f 78f
12:30am  -   -   -  13 18 mph 1014.5mb 78f 78f
12:20am  -   -   -  13 16 mph 1014.6mb 78f 78f
12:10am  -   -   -  13 18 mph 1014.8mb 78f 78f
12:00am  -   -   -  13 16 mph 1014.9mb 78f 78f
Fri 05/19 11:50pm 4.5ft 7s 5s 16 18 mph 1014.9mb 78f 78f
11:40pm 4.5ft  -  5s 13 18 mph 1014.8mb 78f 78f
11:30pm  -   -   -  16 18 mph 1014.8mb 78f 78f
11:20pm  -   -   -  13 18 mph 1014.9mb 78f 78f
11:10pm  -   -   -  13 18 mph 1015mb 78f 78f
11:00pm  -   -   -  13 18 mph 1015mb 78f 78f
10:50pm 4.5ft 6s 5s 13 18 mph 1015mb 78f 78f
10:40pm 4.5ft  -  5s 13 18 mph 1015mb 78f 78f
10:30pm  -   -   -  13 18 mph 1015mb 78f 78f
10:20pm  -   -   -  16 20 mph 1014.9mb 78f 78f
10:10pm  -   -   -  16 20 mph 1014.6mb 78f 78f
10:00pm  -   -   -  16 20 mph 1014.5mb 78f 78f
9:50pm 4.5ft 6s 5s 16 20 mph 1014.5mb 78f 78f
9:40pm 4.5ft  -  5s 16 18 mph 1014.5mb 78f 78f
9:30pm  -   -   -  16 20 mph 1014.5mb 78f 78f
9:20pm  -   -   -  16 20 mph 1014.5mb 78f 78f
9:10pm  -   -   -  16 20 mph 1014.4mb 78f 78f
9:00pm  -   -   -  16 18 mph 1014.3mb 78f 78f
8:50pm 4.5ft 6s 5s 16 20 mph 1014mb 78f 78f
8:40pm  -   -   -  16 18 mph 1014mb 78f 78f
8:30pm  -   -   -  16 20 mph 1014mb 78f 78f
8:20pm  -   -   -  16 20 mph 1014mb 78f 78f
8:10pm  -   -   -  16 20 mph 1014mb 78f 78f
8:00pm  -   -   -  16 18 mph 1014mb 78f 78f
7:50pm 4.5ft 5s 5s 16 20 mph 1014mb 78f 78f
7:40pm 4.5ft  -  5s 13 18 mph 1014mb 78f 78f
7:30pm  -   -   -  16 18 mph 1014mb 78f 78f
7:20pm  -   -   -  16 18 mph 1013.8mb 78f 78f
7:10pm  -   -   -  16 18 mph 1013.8mb 78f 78f
7:00pm  -   -   -  16 18 mph 1013.8mb 79f 78f
6:50pm 4.5ft 6s 5s 16 18 mph 1013.8mb 79f 78f
6:40pm  -   -   -  16 20 mph 1013.9mb 79f 78f
6:30pm  -   -   -  16 18 mph 1013.9mb 79f 78f
6:20pm  -   -   -  16 20 mph 1013.8mb 79f 78f
6:10pm  -   -   -  16 18 mph 1013.8mb 79f 78f
6:00pm  -   -   -  16 20 mph 1013.8mb 79f 78f
5:50pm 4.5ft 6s 5s 16 20 mph 1013.8mb 79f 78f
5:40pm  -   -   -  16 18 mph 1013.9mb 79f 78f
5:30pm  -   -   -  16 20 mph 1014mb 79f 78f
5:20pm  -   -   -  16 18 mph 1014mb 79f 78f
5:10pm  -   -   -  16 20 mph 1013.9mb 79f 78f
5:00pm  -   -   -  16 20 mph 1013.9mb 79f 78f
4:50pm 4.5ft 6s 5s 16 20 mph 1014mb 79f 78f
4:40pm  -   -   -  16 20 mph 1014mb 79f 78f
4:30pm  -   -   -  16 20 mph 1014mb 79f 78f
4:20pm  -   -   -  18 22 mph 1014mb 79f 78f
4:10pm  -   -   -  18 20 mph 1014mb 79f 78f
4:00pm  -   -   -  16 20 mph 1014mb 79f 78f
3:50pm 4.5ft 5s 5s 18 22 mph 1014mb 79f 78f
3:40pm  -   -   -  18 22 mph 1014mb 79f 78f
3:30pm  -   -   -  18 22 mph 1014mb 79f 78f
3:20pm  -   -   -  18 20 mph 1014.1mb 78f 78f
3:10pm  -   -   -  18 20 mph 1014.1mb 78f 78f
3:00pm  -   -   -  16 20 mph 1014.4mb 78f 78f
2:50pm 4.5ft 7s 5s 16 20 mph 1014.5mb 78f 78f
2:40pm  -   -   -  16 20 mph 1014.6mb 78f 78f
2:30pm  -   -   -  16 20 mph 1014.6mb 78f 78f
2:20pm  -   -   -  18 22 mph 1014.6mb 78f 78f
2:10pm  -   -   -  18 22 mph 1014.6mb 78f 78f
2:00pm  -   -   -  16 20 mph 1014.9mb 78f 78f
1:50pm 4ft 7s 5s 16 20 mph 1014.9mb 78f 78f
1:40pm 4ft  -  5s 18 20 mph 1015mb 78f 78f
1:30pm  -   -   -  16 20 mph 1015.1mb 78f 78f
1:20pm  -   -   -  18 22 mph 1015.1mb 78f 78f
1:10pm  -   -   -  18 20 mph 1015.1mb 78f 78f
1:00pm  -   -   -  18 22 mph 1015mb 78f 78f
12:50pm 4ft 5s 5s 18 22 mph 1015.1mb 78f 78f
12:40pm 4ft  -  5s 16 20 mph 1015.4mb 78f 78f
12:30pm  -   -   -  16 20 mph 1015.1mb 78f 78f
12:20pm  -   -   -  18 22 mph 1015.4mb 78f 78f
12:10pm  -   -   -  18 20 mph 1015.4mb 78f 78f
12:00pm  -   -   -  18 22 mph 1015.4mb 78f 78f
11:50am 4ft 6s 5s 18 22 mph 1015.4mb 78f 78f
11:40am 4ft  -  5s 18 22 mph 1015.3mb 78f 78f
11:30am  -   -   -  18 22 mph 1015.1mb 78f 78f
11:20am  -   -   -  18 20 mph 1015.3mb 78f 78f
11:10am  -   -   -  18 22 mph 1015.3mb 78f 78f
11:00am  -   -   -  16 20 mph 1015.3mb 78f 78f
10:50am  -   -   -  16 20 mph 1015.4mb 78f 78f
10:40am  -   -   -  16 20 mph 1015.4mb 78f 78f
10:30am  -   -   -  18 22 mph 1015.5mb 78f 78f
10:20am  -   -   -  18 20 mph 1015.4mb 78f 78f
10:10am  -   -   -  18 20 mph 1015.3mb 78f 78f
10:00am  -   -   -  18 20 mph 1015.3mb 78f 78f
9:50am 3.5ft 9s 5s 16 20 mph 1015.4mb 78f 78f
9:40am  -   -   -  16 20 mph 1015.4mb 78f 78f
9:30am  -   -   -  16 20 mph 1015.4mb 78f 78f
9:20am  -   -   -  16 20 mph 1015.5mb 78f 78f
9:10am  -   -   -  13 16 mph 1015.6mb 78f 78f
9:00am  -   -   -  13 16 mph 1015.9mb 78f 78f
8:50am 4ft 6s 5s 11 13 mph 1016mb 78f 78f
8:40am 4ft  -  5s 9 13 mph 1016.3mb - 78f
8:30am  -   -   -  9 11 mph 1016.1mb 78f 78f
8:20am  -   -   -  9 13 mph 1016mb 78f 78f
8:10am  -   -   -  13 16 mph 1015.9mb 78f 78f
8:00am  -   -   -  13 16 mph 1015.6mb 78f 78f
7:50am 4ft 7s 5s 13 16 mph 1015.6mb 78f 78f
7:40am 4ft  -  5s 11 13 mph 1015.6mb 78f 78f
7:30am  -   -   -  13 16 mph 1015.5mb 78f 78f
7:20am  -   -   -  13 16 mph 1015.5mb 78f 78f
7:10am  -   -   -  13 16 mph 1015.4mb 78f 78f
7:00am  -   -   -  13 16 mph 1015.4mb 78f 78f
6:50am 4ft 8s 5s 13 16 mph 1015.3mb 78f 78f
6:40am  -   -   -  13 16 mph 1015.3mb 77f 78f
6:30am  -   -   -  13 16 mph 1015.4mb 77f 78f
6:20am  -   -   -  13 16 mph 1015.3mb 77f 78f
6:10am  -   -   -  11 16 mph 1015.4mb 77f 78f
6:00am  -   -   -  16 18 mph 1015mb 78f -
5:50am 4ft 6s 5s 16 18 mph 1014.5mb 78f 78f
5:40am 4ft  -  5s 11 16 mph 1014.9mb 78f 78f
5:30am  -   -   -  9 13 mph 1015mb 78f 78f
5:20am  -   -   -  9 11 mph 1014.8mb 78f 78f
5:10am  -   -   -  11 13 mph 1014.5mb 78f 78f
5:00am  -   -   -  11 13 mph 1014.5mb 78f 78f
4:50am 4.5ft 6s 5s 9 13 mph 1014.5mb 78f 78f
4:40am 4.5ft  -  5s 11 13 mph 1014.5mb 78f 77f
4:30am  -   -   -  9 11 mph 1014.3mb 78f 77f
4:20am  -   -   -  9 11 mph 1014.3mb 78f 77f
4:10am  -   -   -  9 11 mph 1014.1mb 78f 77f
4:00am  -   -   -  7 9 mph 1014.1mb 78f 77f
3:50am 4.5ft 6s 5s 7 9 mph 1014.3mb - 77f
3:40am 4.5ft  -  5s 7 9 mph 1014.3mb 78f 77f
3:30am  -   -   -  9 11 mph 1014.3mb 78f 77f
3:20am  -   -   -  11 13 mph 1014.5mb 78f 77f
3:10am  -   -   -  11 13 mph 1014.4mb 78f 77f
3:00am  -   -   -  11 16 mph 1014.1mb 78f 77f
2:50am 4.5ft 6s 5s 11 13 mph 1014.3mb 78f 77f
2:40am  -   -   -  11 16 mph 1014.4mb 78f 77f
2:30am  -   -   -  13 16 mph 1014.3mb 78f 77f
2:20am  -   -   -  13 16 mph 1014.3mb 78f 77f
2:10am  -   -   -  11 13 mph 1014.5mb 78f 77f
2:00am  -   -   -  11 16 mph 1014.5mb 78f 77f
1:50am 4.5ft 6s 5s 13 16 mph 1014.5mb 78f 77f
1:40am  -   -   -  13 16 mph 1014.1mb 78f 77f
1:30am  -   -   -  11 16 mph 1014.6mb 78f 77f
1:20am  -   -   -  11 16 mph 1014.9mb 78f 77f
1:10am  -   -   -  13 16 mph 1014.8mb 78f 77f
1:00am  -   -   -  13 18 mph 1014.8mb 78f 77f
12:50am 4.5ft 6s 5s 13 18 mph 1014.8mb 78f 77f
12:40am 4.5ft  -  5s 16 18 mph 1014.8mb 78f 77f
12:30am  -   -   -  13 18 mph 1015mb 78f 77f
12:20am  -   -   -  13 18 mph 1015mb 78f 78f
12:10am  -   -   -  13 18 mph 1015mb 78f 77f
12:00am  -   -   -  16 18 mph 1015mb 78f 77f
Thu 05/18 11:50pm 4.5ft 6s 5s 16 18 mph 1014.9mb 78f 78f
11:40pm 4.5ft  -  5s 13 18 mph 1015mb 78f 77f
11:30pm  -   -   -  13 16 mph 1015.1mb 78f 78f
11:20pm  -   -   -  13 18 mph 1015.4mb 78f 78f
11:10pm  -   -   -  13 18 mph 1015.3mb 78f 78f
11:00pm  -   -   -  13 18 mph 1015.3mb 78f 78f
10:50pm 4.5ft 6s 5s 13 16 mph 1015.1mb 78f 78f
10:40pm  -   -   -  16 18 mph 1015.4mb 78f 78f
10:30pm  -   -   -  16 18 mph 1015.3mb 78f 78f
10:20pm  -   -   -  16 18 mph 1015.4mb 78f 78f
10:10pm  -   -   -  13 18 mph 1015.3mb 78f 78f
10:00pm  -   -   -  13 18 mph 1015.5mb 78f 78f
9:50pm 4.5ft 6s 5s 13 18 mph 1015.4mb 78f 78f
9:40pm 4.5ft  -  5s 13 18 mph 1015.5mb 78f 78f
9:30pm  -   -   -  13 18 mph 1015.5mb 78f 78f
9:20pm  -   -   -  13 18 mph 1015.4mb 78f 78f
9:10pm  -   -   -  16 18 mph 1015.1mb 78f 78f
9:00pm  -   -   -  16 18 mph 1015mb 78f 78f
8:50pm 4ft 6s 5s 16 18 mph 1015mb 78f 78f
8:10pm  -   -   -  16 20 mph 1015.3mb - 78f
8:00pm  -   -   -  16 18 mph 1015mb 78f 78f
7:50pm 4ft 6s 5s 16 20 mph 1015mb 78f 78f
7:40pm 4ft  -  5s 16 18 mph 1015.1mb 78f 78f
7:30pm  -   -   -  16 18 mph 1015mb 78f 78f
7:20pm  -   -   -  13 18 mph 1014.9mb 78f 78f
7:10pm  -   -   -  16 18 mph 1014.9mb 78f 78f
7:00pm  -   -   -  16 18 mph 1014.6mb 78f 78f
6:50pm 4ft 5s 5s 16 20 mph 1014.5mb 78f 78f
6:40pm  -   -   -  16 20 mph 1014.3mb 78f 78f
6:30pm  -   -   -  16 20 mph 1014.5mb 78f 78f
6:20pm  -   -   -  18 20 mph 1014.6mb 78f 78f
6:10pm  -   -   -  16 20 mph 1014.5mb 78f 78f
6:00pm  -   -   -  16 20 mph 1014.8mb 78f 78f
5:50pm 4.5ft 5s 5s 16 18 mph 1015mb 78f 78f
5:40pm 4.5ft  -  5s 13 16 mph 1015.1mb 78f 78f
5:30pm  -   -   -  13 16 mph 1015.4mb 78f 78f
5:20pm  -   -   -  16 18 mph 1015.3mb 78f 78f
5:10pm  -   -   -  13 18 mph 1015.1mb 78f 78f
5:00pm  -   -   -  16 18 mph 1015.1mb 78f 78f
4:50pm 4ft 5s 5s 16 20 mph 1015mb 78f 78f
4:40pm 4ft  -  5s 16 18 mph 1015mb 78f 78f
4:30pm  -   -   -  13 18 mph 1015.1mb 78f 78f
4:20pm  -   -   -  16 18 mph 1015.3mb 78f 78f
4:10pm  -   -   -  16 18 mph 1015.4mb 78f 78f
4:00pm  -   -   -  13 18 mph 1015.6mb 78f 78f
3:50pm 4ft 7s 5s 16 20 mph 1015.8mb 78f 78f
3:40pm  -   -   -  16 20 mph 1015.5mb 78f 78f